KDLS

Details ICAO KDLS
Name COLUMBIA GORGE RGNL THE DALLES MUNI
Region United States
Timezone America/Los_Angeles (UTC-7.0)
Plans Departing 17
Arriving 19
Stats Elevation 247 ft / 75 m (AMSL)
Location 45.619429° -121.168304°
Runways 2
Magnetic Variation 14.975° E
Sunrise 2018-05-27 12:23:35 UTC / 2018-05-27 05:23:35 Local
Sunset 2018-05-28 03:43:02 UTC / 2018-05-27 20:43:02 Local
Advertisement - Login to hide

Runways

ID Width Length Bearing (true) Bearing (mag) Surface Threshold Offset Overrun Length
07 100 ft / 30 m 4,635 ft / 1,413 m 87.98° 73.00° Asphalt 440 ft / 134 m 0 ft / 0 m
12 100 ft / 30 m 5,095 ft / 1,553 m 144.67° 129.69° Asphalt 200 ft / 61 m 0 ft / 0 m
25 100 ft / 30 m 4,635 ft / 1,413 m 267.99° 253.01° Asphalt 196 ft / 60 m 0 ft / 0 m
30 100 ft / 30 m 5,095 ft / 1,553 m 324.68° 309.70° Asphalt 0 ft / 0 m 0 ft / 0 m

Map

Weather


0- 5 10 15 20 25 30 35+ Temperature / ° C

Clouds and Precipitation
Forecast for 2018-05-28 00:00 UTC. Updated 5 hours ago

Ground ~20,000 ft ~40,000 ft Winds

METAR

KDLS 280253Z AUTO 32011KT 10SM CLR 25/10 A3001 RMK AO2 SLP159 T02500100 56003

TAF

TAF KDLS 272320Z 2800/2824 31015G20KT P6SM FEW250 FM281800 31020G30KT P6SM SKC

Frequencies

Recorded 135.17 MHz ASOS
Unicom 123.00 MHz CTAF/UNICOM
Warning: Do not use this data for real-world aviation or navigation. No guarantee of current accuracy is given.